createdAt,value
2018-06-30T00:02:07.473Z,19.83
2018-06-30T00:05:32.142Z,20.10
2018-06-30T00:08:57.438Z,22.63
2018-06-30T00:12:22.173Z,20.50
2018-06-30T00:15:46.939Z,19.53
2018-06-30T00:19:11.702Z,19.53
2018-06-30T00:22:36.385Z,20.07
2018-06-30T00:26:01.131Z,20.63
2018-06-30T00:29:25.818Z,21.73
2018-06-30T00:32:50.472Z,19.87
2018-06-30T00:36:16.220Z,20.53
2018-06-30T00:39:40.852Z,20.23
2018-06-30T00:43:06.991Z,19.67
2018-06-30T00:46:31.841Z,20.97
2018-06-30T00:49:56.782Z,19.93
2018-06-30T00:53:21.511Z,19.90
2018-06-30T00:56:46.329Z,19.90
2018-06-30T01:00:10.665Z,20.13
2018-06-30T01:03:35.355Z,20.77
2018-06-30T01:06:59.638Z,20.23
2018-06-30T01:10:24.356Z,20.10
2018-06-30T01:13:49.030Z,20.73
2018-06-30T01:17:13.660Z,21.87
2018-06-30T01:20:38.300Z,19.63
2018-06-30T01:24:02.947Z,19.17
2018-06-30T01:27:28.842Z,19.80
2018-06-30T01:30:53.530Z,19.27
2018-06-30T01:34:17.963Z,20.10
2018-06-30T01:37:43.676Z,20.10
2018-06-30T01:41:07.960Z,19.73
2018-06-30T01:44:32.704Z,20.13
2018-06-30T01:47:57.331Z,19.57
2018-06-30T01:51:22.033Z,20.37
2018-06-30T01:54:46.786Z,20.00
2018-06-30T01:58:11.422Z,20.47
2018-06-30T02:01:36.272Z,19.63
2018-06-30T02:05:00.932Z,19.10
2018-06-30T02:08:25.613Z,19.60
2018-06-30T02:11:50.236Z,20.47
2018-06-30T02:15:14.933Z,20.03
2018-06-30T02:18:39.574Z,20.60
2018-06-30T02:22:04.277Z,18.70
2018-06-30T02:25:28.627Z,20.53
2018-06-30T02:28:53.914Z,20.57
2018-06-30T02:32:18.543Z,19.30
2018-06-30T02:35:43.223Z,19.43
2018-06-30T02:39:09.178Z,20.67
2018-06-30T02:42:33.827Z,21.27
2018-06-30T02:45:58.608Z,21.27
2018-06-30T02:49:23.336Z,20.40
2018-06-30T02:52:48.073Z,20.53
2018-06-30T02:56:12.829Z,21.30
2018-06-30T02:59:37.461Z,20.90
2018-06-30T03:03:02.113Z,20.67
2018-06-30T03:06:26.769Z,19.57
2018-06-30T03:09:51.619Z,20.67
2018-06-30T03:13:16.352Z,21.33
2018-06-30T03:16:41.134Z,20.23
2018-06-30T03:20:06.032Z,20.53
2018-06-30T03:23:31.806Z,21.03
2018-06-30T03:26:56.558Z,20.43
2018-06-30T03:30:21.306Z,20.37
2018-06-30T03:33:45.847Z,19.83
2018-06-30T03:37:10.682Z,20.47
2018-06-30T03:40:35.389Z,21.60
2018-06-30T03:44:00.130Z,21.23
2018-06-30T03:47:24.858Z,22.47
2018-06-30T03:50:49.506Z,21.23
2018-06-30T03:54:14.249Z,22.07
2018-06-30T03:57:39.951Z,22.10
2018-06-30T04:01:04.648Z,21.60
2018-06-30T04:04:29.304Z,22.47
2018-06-30T04:07:54.043Z,22.73
2018-06-30T04:11:18.866Z,23.47
2018-06-30T04:14:43.221Z,23.77
2018-06-30T04:18:08.061Z,23.90
2018-06-30T04:21:32.704Z,23.40
2018-06-30T04:24:57.354Z,22.60
2018-06-30T04:28:22.107Z,23.87
2018-06-30T04:31:47.054Z,22.87
2018-06-30T04:35:11.778Z,25.37
2018-06-30T04:38:36.396Z,23.83
2018-06-30T04:42:01.098Z,23.03
2018-06-30T04:45:25.797Z,23.33
2018-06-30T04:48:50.446Z,24.27
2018-06-30T04:52:14.830Z,23.77
2018-06-30T04:55:39.541Z,24.83
2018-06-30T04:59:05.413Z,23.93
2018-06-30T05:02:30.204Z,24.40
2018-06-30T05:05:54.897Z,25.50
2018-06-30T05:09:19.598Z,24.57
2018-06-30T05:12:44.383Z,26.77
2018-06-30T05:16:09.055Z,24.63
2018-06-30T05:19:33.477Z,25.17
2018-06-30T05:22:59.125Z,25.23
2018-06-30T05:26:23.877Z,25.40
2018-06-30T05:29:48.617Z,25.60
2018-06-30T05:33:13.249Z,25.97
2018-06-30T05:36:37.953Z,27.30
2018-06-30T05:40:02.679Z,24.83
2018-06-30T05:43:27.358Z,25.70
2018-06-30T05:46:52.178Z,26.87
2018-06-30T05:50:16.948Z,27.20
2018-06-30T05:53:41.851Z,27.90
2018-06-30T05:57:08.501Z,25.97
2018-06-30T06:00:33.305Z,27.87
2018-06-30T06:03:58.099Z,27.93
2018-06-30T06:07:22.732Z,26.83
2018-06-30T06:10:47.381Z,27.97
2018-06-30T06:14:12.287Z,26.33
2018-06-30T06:17:36.997Z,27.60
2018-06-30T06:21:01.677Z,27.67
2018-06-30T06:24:26.445Z,26.40
2018-06-30T06:27:50.804Z,27.30
2018-06-30T06:31:15.532Z,27.90
2018-06-30T06:34:40.281Z,28.67
2018-06-30T06:38:05.085Z,25.40
2018-06-30T06:41:29.717Z,26.90
2018-06-30T06:44:54.432Z,27.37
2018-06-30T06:48:19.088Z,25.00
2018-06-30T06:51:43.765Z,24.17
2018-06-30T06:55:08.465Z,26.73
2018-06-30T06:58:33.164Z,24.50
2018-06-30T07:01:57.806Z,24.57
2018-06-30T07:05:22.088Z,25.13
2018-06-30T07:08:46.741Z,25.90
2018-06-30T07:12:11.063Z,25.00
2018-06-30T07:15:35.697Z,25.63
2018-06-30T07:19:00.354Z,24.23
2018-06-30T07:22:25.712Z,23.80
2018-06-30T07:25:51.521Z,22.27
2018-06-30T07:29:16.211Z,22.67
2018-06-30T07:32:40.945Z,23.70
2018-06-30T07:36:05.585Z,23.47
2018-06-30T07:39:30.313Z,23.10
2018-06-30T07:42:55.105Z,25.40
2018-06-30T07:46:19.716Z,26.37
2018-06-30T07:49:44.382Z,22.77
2018-06-30T07:53:09.175Z,23.67
2018-06-30T07:56:33.977Z,22.43
2018-06-30T07:59:58.761Z,21.23
2018-06-30T08:03:23.153Z,22.13
2018-06-30T08:06:48.696Z,21.40
2018-06-30T08:10:14.091Z,23.20
2018-06-30T08:13:39.775Z,24.03
2018-06-30T08:17:04.515Z,25.40
2018-06-30T08:20:30.352Z,23.50
2018-06-30T08:23:55.107Z,23.23
2018-06-30T08:27:19.806Z,23.37
2018-06-30T08:30:44.559Z,23.93
2018-06-30T08:34:09.507Z,23.10
2018-06-30T08:37:34.314Z,23.23
2018-06-30T08:40:59.155Z,24.87
2018-06-30T08:44:24.918Z,24.00
2018-06-30T08:47:49.731Z,19.43
2018-06-30T08:51:14.708Z,19.23
2018-06-30T08:54:40.310Z,17.57
2018-06-30T08:58:07.107Z,15.63
2018-06-30T09:01:32.017Z,16.77
2018-06-30T09:04:56.703Z,18.27
2018-06-30T09:08:21.639Z,17.53
2018-06-30T09:11:46.454Z,17.80
2018-06-30T09:15:11.123Z,16.90
2018-06-30T09:18:35.723Z,14.90
2018-06-30T09:22:00.395Z,15.70
2018-06-30T09:25:26.475Z,14.97
2018-06-30T09:28:51.389Z,13.83
2018-06-30T09:32:16.272Z,16.03
2018-06-30T09:35:41.048Z,16.50
2018-06-30T09:39:09.634Z,14.50
2018-06-30T09:42:34.431Z,15.77
2018-06-30T09:45:59.136Z,12.10
2018-06-30T09:49:23.837Z,11.17
2018-06-30T09:52:48.577Z,11.37
2018-06-30T09:56:12.967Z,11.23
2018-06-30T09:59:37.645Z,10.27
2018-06-30T10:03:02.300Z,10.20
2018-06-30T10:06:27.018Z,10.10
2018-06-30T10:09:52.397Z,9.13
2018-06-30T10:13:17.118Z,10.10
2018-06-30T10:16:41.855Z,10.20
2018-06-30T10:20:06.604Z,10.37
2018-06-30T10:23:31.283Z,12.20
2018-06-30T10:26:55.621Z,10.80
2018-06-30T10:30:20.343Z,10.80
2018-06-30T10:33:44.985Z,10.57
2018-06-30T10:37:09.720Z,10.80
2018-06-30T10:40:34.543Z,11.30
2018-06-30T10:43:59.423Z,11.70
2018-06-30T10:47:24.338Z,11.63
2018-06-30T10:50:50.162Z,12.70
2018-06-30T10:54:14.923Z,11.70
2018-06-30T10:57:40.941Z,12.13
2018-06-30T11:01:05.855Z,12.70
2018-06-30T11:04:32.147Z,13.23
2018-06-30T11:07:57.056Z,13.37
2018-06-30T11:11:22.565Z,11.13
2018-06-30T11:14:47.221Z,11.20
2018-06-30T11:18:12.146Z,12.00
2018-06-30T11:21:36.936Z,10.40
2018-06-30T11:25:01.612Z,11.55
2018-06-30T11:28:26.272Z,13.00
2018-06-30T11:31:51.258Z,11.22
2018-06-30T11:35:15.941Z,10.40
2018-06-30T11:38:40.756Z,8.88
2018-06-30T11:42:05.905Z,9.90
2018-06-30T11:45:31.560Z,9.88
2018-06-30T11:48:56.295Z,9.63
2018-06-30T11:52:21.151Z,10.65
2018-06-30T11:55:47.095Z,9.80
2018-06-30T11:59:12.825Z,9.25
2018-06-30T12:02:37.852Z,9.18
2018-06-30T12:06:02.794Z,8.90
2018-06-30T12:09:27.718Z,9.45
2018-06-30T12:12:52.524Z,10.18
2018-06-30T12:16:18.064Z,9.48
2018-06-30T12:19:43.021Z,10.32
2018-06-30T12:23:08.891Z,9.63
2018-06-30T12:26:33.910Z,9.08
2018-06-30T12:29:58.967Z,8.93
2018-06-30T12:33:24.610Z,9.68
2018-06-30T12:36:49.664Z,8.15
2018-06-30T12:40:14.495Z,8.18
2018-06-30T12:43:39.301Z,9.00
2018-06-30T12:47:04.032Z,8.10
2018-06-30T12:50:28.714Z,8.30
2018-06-30T12:53:53.553Z,8.55
2018-06-30T12:57:20.986Z,8.03
2018-06-30T13:00:45.868Z,8.35
2018-06-30T13:04:10.736Z,8.38
2018-06-30T13:07:38.592Z,8.78
2018-06-30T13:11:03.402Z,7.95
2018-06-30T13:14:27.797Z,7.50
2018-06-30T13:17:52.918Z,7.50
2018-06-30T13:21:18.254Z,7.60
2018-06-30T13:24:42.985Z,7.05
2018-06-30T13:28:07.853Z,7.15
2018-06-30T13:31:32.694Z,7.85
2018-06-30T13:34:57.452Z,8.33
2018-06-30T13:38:22.265Z,25.92
2018-06-30T13:41:47.113Z,8.45
2018-06-30T13:45:12.326Z,7.40
2018-06-30T13:48:37.112Z,6.95
2018-06-30T13:52:02.113Z,6.92
2018-06-30T13:55:27.140Z,7.12
2018-06-30T13:58:51.926Z,7.45
2018-06-30T14:02:17.619Z,7.15
2018-06-30T14:05:42.276Z,7.42
2018-06-30T14:09:10.503Z,7.25
2018-06-30T14:12:35.372Z,7.72
2018-06-30T14:16:00.129Z,7.20
2018-06-30T14:19:24.805Z,6.58
2018-06-30T14:22:49.558Z,6.90
2018-06-30T14:26:14.237Z,7.45
2018-06-30T14:29:38.913Z,6.97
2018-06-30T14:33:03.316Z,6.72
2018-06-30T14:36:28.050Z,7.33
2018-06-30T14:39:52.802Z,6.87
2018-06-30T14:43:17.169Z,8.30
2018-06-30T14:46:41.931Z,6.58
2018-06-30T14:50:06.737Z,6.45
2018-06-30T14:53:31.486Z,6.62
2018-06-30T14:56:56.276Z,5.67
2018-06-30T15:00:20.765Z,7.37
2018-06-30T15:03:45.484Z,6.37
2018-06-30T15:07:10.286Z,6.12
2018-06-30T15:10:35.092Z,7.25
2018-06-30T15:13:59.883Z,5.97
2018-06-30T15:17:24.591Z,5.78
2018-06-30T15:20:49.264Z,5.70
2018-06-30T15:24:14.027Z,5.28
2018-06-30T15:27:38.903Z,5.37
2018-06-30T15:31:03.263Z,6.22
2018-06-30T15:34:27.906Z,5.55
2018-06-30T15:37:52.907Z,5.65
2018-06-30T15:41:17.760Z,5.60
2018-06-30T15:44:42.535Z,6.83
2018-06-30T15:48:07.363Z,5.90
2018-06-30T15:51:32.068Z,5.70
2018-06-30T15:54:56.827Z,5.60
2018-06-30T15:58:21.548Z,100.30
2018-06-30T16:01:46.193Z,114.00
2018-06-30T16:05:11.065Z,10.75
2018-06-30T16:08:35.808Z,6.33
2018-06-30T16:12:00.611Z,6.60
2018-06-30T16:15:25.036Z,6.62
2018-06-30T16:18:50.011Z,9.00
2018-06-30T16:22:14.813Z,6.85
2018-06-30T16:33:38.849Z,6.62
2018-06-30T16:37:03.766Z,7.70
2018-06-30T16:40:28.565Z,7.22
2018-06-30T16:43:53.593Z,6.78
2018-06-30T16:47:18.380Z,5.45
2018-06-30T16:50:43.142Z,6.42
2018-06-30T16:54:08.150Z,5.90
2018-06-30T16:57:32.924Z,6.33
2018-06-30T17:00:57.903Z,6.28
2018-06-30T17:04:22.799Z,6.15
2018-06-30T17:07:47.741Z,6.17
2018-06-30T17:11:12.571Z,6.35
2018-06-30T17:14:38.250Z,6.10
2018-06-30T17:18:03.036Z,7.40
2018-06-30T17:21:27.725Z,6.90
2018-06-30T17:24:52.651Z,9.78
2018-06-30T17:28:17.417Z,8.75
2018-06-30T17:31:42.191Z,6.85
2018-06-30T17:35:07.084Z,7.58
2018-06-30T17:38:31.942Z,7.72
2018-06-30T17:41:56.677Z,6.78
2018-06-30T17:45:21.313Z,7.33
2018-06-30T17:48:46.057Z,6.92
2018-06-30T17:52:10.845Z,7.72
2018-06-30T17:55:35.690Z,6.85
2018-06-30T17:59:00.432Z,6.85
2018-06-30T18:02:25.356Z,6.30
2018-06-30T18:05:50.448Z,6.10
2018-06-30T18:09:16.361Z,7.47
2018-06-30T18:12:41.181Z,8.40
2018-06-30T18:16:06.352Z,6.87
2018-06-30T18:19:31.150Z,7.17
2018-06-30T18:22:56.057Z,6.60
2018-06-30T18:26:20.447Z,8.58
2018-06-30T18:29:45.181Z,8.65
2018-06-30T18:33:09.924Z,9.00
2018-06-30T18:36:34.796Z,7.20
2018-06-30T18:39:59.623Z,7.53
2018-06-30T18:43:23.938Z,7.87
2018-06-30T18:46:48.677Z,7.70
2018-06-30T18:50:13.262Z,7.47
2018-06-30T18:53:37.915Z,7.30
2018-06-30T18:57:02.744Z,8.10
2018-06-30T19:00:29.786Z,7.62
2018-06-30T19:03:54.614Z,8.03
2018-06-30T19:07:19.344Z,7.37
2018-06-30T19:10:44.181Z,7.45
2018-06-30T19:14:09.660Z,7.40
2018-06-30T19:17:34.606Z,7.25
2018-06-30T19:21:00.554Z,7.22
2018-06-30T19:24:25.192Z,7.37
2018-06-30T19:27:49.866Z,7.20
2018-06-30T19:31:14.632Z,7.47
2018-06-30T19:34:39.302Z,7.50
2018-06-30T19:38:04.053Z,7.37
2018-06-30T19:41:28.399Z,7.37
2018-06-30T19:44:53.130Z,7.30
2018-06-30T19:48:18.006Z,7.40
2018-06-30T19:51:42.709Z,7.20
2018-06-30T19:55:07.463Z,7.17
2018-06-30T19:58:32.138Z,7.47
2018-06-30T20:01:56.789Z,8.03
2018-06-30T20:05:21.464Z,7.90
2018-06-30T20:08:46.354Z,6.97
2018-06-30T20:12:10.993Z,7.47
2018-06-30T20:15:35.684Z,7.50
2018-06-30T20:19:00.344Z,7.43
2018-06-30T20:22:25.248Z,7.97
2018-06-30T20:25:49.603Z,8.07
2018-06-30T20:29:13.953Z,7.93
2018-06-30T20:32:38.842Z,7.50
2018-06-30T20:36:03.578Z,8.77
2018-06-30T20:39:28.276Z,8.30
2018-06-30T20:42:52.983Z,8.37
2018-06-30T20:46:17.691Z,9.00
2018-06-30T20:49:42.436Z,9.30
2018-06-30T20:53:07.300Z,9.33
2018-06-30T20:56:32.090Z,9.00
2018-06-30T20:59:56.761Z,9.60
2018-06-30T21:03:21.134Z,8.40
2018-06-30T21:06:45.911Z,8.50
2018-06-30T21:10:10.302Z,8.20
2018-06-30T21:13:35.103Z,8.57
2018-06-30T21:16:59.960Z,8.00
2018-06-30T21:20:24.638Z,8.33
2018-06-30T21:23:49.721Z,8.43
2018-06-30T21:27:14.349Z,8.37
2018-06-30T21:30:39.109Z,8.10
2018-06-30T21:34:03.540Z,8.27
2018-06-30T21:37:28.552Z,8.50
2018-06-30T21:40:53.239Z,7.67
2018-06-30T21:44:17.971Z,8.17
2018-06-30T21:47:42.366Z,7.70
2018-06-30T21:51:07.198Z,8.33
2018-06-30T21:54:45.918Z,8.30
2018-06-30T21:58:16.385Z,7.83
2018-06-30T22:01:42.483Z,8.20
2018-06-30T22:05:07.482Z,7.77
2018-06-30T22:08:32.177Z,7.83
2018-06-30T22:11:56.857Z,8.07
2018-06-30T22:15:21.279Z,8.27
2018-06-30T22:18:45.905Z,8.23
2018-06-30T22:22:10.613Z,7.77
2018-06-30T22:25:35.504Z,8.17
2018-06-30T22:30:29.309Z,8.10
2018-06-30T22:33:56.469Z,8.93
2018-06-30T22:37:21.145Z,7.47
2018-06-30T22:40:45.799Z,7.53
2018-06-30T22:44:10.455Z,7.87
2018-06-30T22:47:35.131Z,8.53
2018-06-30T22:50:59.797Z,7.73
2018-06-30T22:54:24.456Z,8.03
2018-06-30T22:57:49.080Z,7.57
2018-06-30T23:01:13.705Z,7.33
2018-06-30T23:04:38.403Z,7.60
2018-06-30T23:08:03.077Z,7.83
2018-06-30T23:11:27.778Z,8.57
2018-06-30T23:14:52.419Z,9.03
2018-06-30T23:18:16.709Z,8.70
2018-06-30T23:21:41.324Z,8.40
2018-06-30T23:25:06.178Z,7.87
2018-06-30T23:28:30.883Z,8.43
2018-06-30T23:31:55.590Z,8.10
2018-06-30T23:35:20.529Z,8.60
2018-06-30T23:38:45.299Z,7.77
2018-06-30T23:42:09.971Z,7.93
2018-06-30T23:45:34.656Z,8.03
2018-06-30T23:48:59.366Z,8.80
2018-06-30T23:52:24.048Z,7.80
2018-06-30T23:55:48.698Z,8.57
2018-06-30T23:59:13.298Z,8.80
